Huntersville, Pennsylvania
Current Conditions -  °F | °C
As of 4:54 PM on Thursday 23 Oct 2014 (Local Time) from KIPT Reporting Station
Overcast Overcast  
Wind Chill: 60°   Ceiling: 3700
Heat Index: 60°   Visibility: 10mi
Dew Point: 43°   Wind: 8mph
Humidity: 53%   Direction: 330°NNW
Pressure: 29.86"   Gusts: NA
Location:  41.225°N, 76.7388°W
Report Text: KIPT 232054Z 33007KT 10SM OVC037 16/06 A2986 RMK AO2 SLP112 T01560061 56009
Loading
Personal Weather Stations






























Interactive Weather Map
Tropical Storm Tracking
New forecast layout! Learn more

10-Day Weather Forecast

Advertisements
Track Severe Weather on mobile